Time;durP1;ratioP1;P1;durP2;ratioP2;P2;SDS_P1;SDS_P2;PMS_P1;PMS_P2;Temp;Humidity;BMP_temperature;BMP_pressure;BME280_temperature;BME280_humidity;BME280_pressure;Samples;Min_cycle;Max_cycle;Signal;HPM_P1;HPM_P2
2022/09/24 00:01:11;;;;;;;;;;;;;;;11.35;82.04;96242.16;4898517;29;20345;-74
2022/09/24 00:03:38;;;;;;;;;;;;;;;11.34;82.44;96239.78;4899110;29;19969;-75
2022/09/24 00:06:04;;;;;;;;;;;;;;;11.33;83.27;96241.56;4898664;29;19980;-75
2022/09/24 00:08:31;;;;;;;;;;;;;;;11.30;82.87;96222.88;4898408;29;19951;-74
2022/09/24 00:11:00;;;;;;;;;;;;;;;11.30;82.57;96233.38;4898419;29;19960;-75
2022/09/24 00:13:26;;;;;;;;;;;;;;;11.28;82.75;96224.94;4899193;29;19953;-75
2022/09/24 00:15:52;;;;;;;;;;;;;;;11.25;82.50;96213.03;4898610;29;19949;-74
2022/09/24 00:18:20;;;;;;;;;;;;;;;11.25;82.79;96220.91;4897299;29;19957;-74
2022/09/24 00:20:46;;;;;;;;;;;;;;;11.23;82.90;96225.59;4898307;29;19956;-74
2022/09/24 00:23:12;;;;;;;;;;;;;;;11.21;83.00;96221.59;4898527;29;20315;-75
2022/09/24 00:28:29;;;;;;;;;;;;;;;11.15;84.07;96226.75;4883572;29;19953;-75
2022/09/24 00:30:59;;;;;;;;;;;;;;;11.13;83.29;96217.50;4898327;29;19982;-74
2022/09/24 00:33:27;;;;;;;;;;;;;;;11.10;83.03;96216.09;4898549;29;19989;-75
2022/09/24 00:35:57;;;;;;;;;;;;;;;11.08;83.09;96218.16;4898207;29;19963;-75
2022/09/24 00:38:23;;;;;;;;;;;;;;;11.06;83.34;96220.19;4898220;29;19960;-74
2022/09/24 00:40:49;;;;;;;;;;;;;;;11.04;83.25;96203.88;4898322;29;20445;-75
2022/09/24 00:43:24;;;;;;;;;;;;;;;11.02;82.89;96208.56;4898542;29;19965;-75
2022/09/24 00:45:52;;;;;;;;;;;;;;;11.00;82.92;96202.75;4898162;29;19959;-74
2022/09/24 00:48:18;;;;;;;;;;;;;;;10.99;82.71;96192.50;4898086;29;19955;-75
2022/09/24 00:50:44;;;;;;;;;;;;;;;10.96;82.85;96191.09;4901440;29;20023;-74
2022/09/24 00:53:13;;;;;;;;;;;;;;;10.96;83.20;96191.09;4900856;29;19964;-75
2022/09/24 00:55:42;;;;;;;;;;;;;;;10.93;82.82;96194.19;4900980;29;19959;-75
2022/09/24 00:58:08;;;;;;;;;;;;;;;10.90;82.77;96190.19;4901932;29;19952;-75
2022/09/24 01:00:37;;;;;;;;;;;;;;;10.88;83.16;96187.00;4901672;29;19979;-75
2022/09/24 01:03:09;;;;;;;;;;;;;;;10.86;83.30;96188.25;4901717;29;20527;-75
2022/09/24 01:05:36;;;;;;;;;;;;;;;10.81;83.39;96183.66;4901429;29;20392;-74
2022/09/24 01:08:02;;;;;;;;;;;;;;;10.77;83.22;96183.34;4901620;29;19952;-75
2022/09/24 01:10:49;;;;;;;;;;;;;;;10.71;83.48;96181.59;4901464;29;19969;-74
2022/09/24 01:13:21;;;;;;;;;;;;;;;10.66;83.22;96173.59;4901021;29;19964;-75
2022/09/24 01:16:07;;;;;;;;;;;;;;;10.62;83.10;96169.03;4901660;29;20302;-74
2022/09/24 01:18:42;;;;;;;;;;;;;;;10.59;83.07;96172.13;4900736;29;19970;-74
2022/09/24 01:21:18;;;;;;;;;;;;;;;10.55;83.12;96169.13;4901631;29;19952;-74
2022/09/24 01:23:55;;;;;;;;;;;;;;;10.51;83.09;96160.91;4900264;29;19959;-75
2022/09/24 01:26:23;;;;;;;;;;;;;;;10.48;83.46;96160.56;4901485;29;19957;-74
2022/09/24 01:28:58;;;;;;;;;;;;;;;10.45;83.29;96163.63;4901078;29;19945;-74
2022/09/24 01:31:28;;;;;;;;;;;;;;;10.41;83.33;96152.00;4900869;29;19983;-74
2022/09/24 01:33:56;;;;;;;;;;;;;;;10.38;83.63;96144.59;4901465;29;19962;-74
2022/09/24 01:36:24;;;;;;;;;;;;;;;10.31;83.45;96135.00;4901226;29;19953;-74
2022/09/24 01:38:51;;;;;;;;;;;;;;;10.29;83.42;96141.44;4900974;29;19961;-74
2022/09/24 01:41:17;;;;;;;;;;;;;;;10.25;83.32;96138.47;4901050;29;19961;-74
2022/09/24 01:43:44;;;;;;;;;;;;;;;10.24;82.88;96138.69;4900775;29;20036;-74
2022/09/24 01:46:11;;;;;;;;;;;;;;;10.24;83.68;96143.94;4900888;29;19972;-75
2022/09/24 01:48:38;;;;;;;;;;;;;;;10.20;83.99;96135.72;4901056;29;19972;-74
2022/09/24 01:51:10;;;;;;;;;;;;;;;10.16;83.93;96132.75;4900800;29;19967;-74
2022/09/24 01:54:02;;;;;;;;;;;;;;;10.15;84.24;96146.06;4900060;29;19974;-74
2022/09/24 01:56:37;;;;;;;;;;;;;;;10.11;84.46;96127.38;4897274;29;20032;-74
2022/09/24 01:59:08;;;;;;;;;;;;;;;10.10;84.59;96133.63;4900931;29;20326;-74
2022/09/24 02:01:40;;;;;;;;;;;;;;;10.06;84.55;96129.06;4900946;29;19959;-74
2022/09/24 02:04:15;;;;;;;;;;;;;;;10.04;84.84;96137.16;4901002;29;19965;-74
2022/09/24 02:07:01;;;;;;;;;;;;;;;10.03;85.13;96143.41;4900448;29;20307;-74
2022/09/24 02:09:28;;;;;;;;;;;;;;;10.02;85.30;96139.19;4890108;29;20420;-74
2022/09/24 02:11:55;;;;;;;;;;;;;;;10.02;85.29;96139.19;4900449;29;19959;-74
2022/09/24 02:14:22;;;;;;;;;;;;;;;10.03;85.76;96137.34;4900582;29;19965;-74
2022/09/24 02:16:49;;;;;;;;;;;;;;;10.00;85.46;96138.59;4899110;29;19965;-74
2022/09/24 02:19:22;;;;;;;;;;;;;;;9.99;85.92;96136.19;4898047;29;19965;-74
2022/09/24 02:21:48;;;;;;;;;;;;;;;9.99;85.58;96138.81;4900265;29;19955;-74
2022/09/24 02:24:17;;;;;;;;;;;;;;;9.96;85.72;96121.72;4900243;29;19962;-74
2022/09/24 02:26:43;;;;;;;;;;;;;;;9.96;86.08;96117.28;4900046;29;19946;-74
2022/09/24 02:29:10;;;;;;;;;;;;;;;9.95;86.46;96115.69;4899961;29;19963;-74
2022/09/24 02:31:37;;;;;;;;;;;;;;;9.93;85.97;96125.59;4899505;29;19996;-74
2022/09/24 02:34:21;;;;;;;;;;;;;;;9.94;85.97;96127.19;4899283;29;19956;-75
2022/09/24 02:36:49;;;;;;;;;;;;;;;9.95;86.17;96131.41;4899114;29;19963;-74
2022/09/24 02:39:16;;;;;;;;;;;;;;;9.95;86.20;96123.56;4899283;29;19975;-74
2022/09/24 02:41:46;;;;;;;;;;;;;;;9.96;86.78;96132.22;4899001;29;19958;-74
2022/09/24 02:44:13;;;;;;;;;;;;;;;9.95;86.64;96131.41;4898977;29;19956;-74
2022/09/24 02:46:40;;;;;;;;;;;;;;;9.95;86.18;96131.41;4898932;29;19964;-74
2022/09/24 02:49:06;;;;;;;;;;;;;;;9.97;86.45;96131.19;4899018;29;19958;-74
2022/09/24 02:51:32;;;;;;;;;;;;;;;9.98;86.72;96126.75;4899063;29;19963;-74
2022/09/24 02:54:00;;;;;;;;;;;;;;;9.97;86.95;96118.06;4894879;29;19964;-74
2022/09/24 02:56:27;;;;;;;;;;;;;;;9.98;87.01;96116.28;4894178;29;19956;-74
2022/09/24 02:58:53;;;;;;;;;;;;;;;9.96;87.15;96111.25;4898837;29;19961;-74
2022/09/24 03:01:19;;;;;;;;;;;;;;;9.98;87.82;96111.84;4898852;29;19964;-74
2022/09/24 03:03:45;;;;;;;;;;;;;;;9.99;87.49;96096.91;4898842;29;20330;-75
2022/09/24 03:06:13;;;;;;;;;;;;;;;9.98;87.60;96095.31;4898438;29;19962;-74
2022/09/24 03:08:41;;;;;;;;;;;;;;;9.98;87.24;96093.50;4898375;29;20397;-74
2022/09/24 03:11:07;;;;;;;;;;;;;;;10.00;87.56;96088.03;4899122;29;19960;-74
2022/09/24 03:13:33;;;;;;;;;;;;;;;10.01;87.65;96100.91;4897931;29;19954;-74
2022/09/24 03:15:59;;;;;;;;;;;;;;;10.02;87.87;96099.09;4898595;29;20322;-74
2022/09/24 03:18:25;;;;;;;;;;;;;;;10.04;88.03;96094.44;4881598;29;19948;-74
2022/09/24 03:20:59;;;;;;;;;;;;;;;10.03;87.93;96082.34;4898649;29;19984;-74
2022/09/24 03:23:25;;;;;;;;;;;;;;;10.04;88.24;96097.84;4898213;29;19974;-74
2022/09/24 03:25:51;;;;;;;;;;;;;;;10.05;88.24;96101.25;4898577;29;19956;-74
2022/09/24 03:28:17;;;;;;;;;;;;;;;10.06;88.04;96103.66;4898190;29;19963;-74
2022/09/24 03:30:58;;;;;;;;;;;;;;;10.07;88.33;96097.38;4837037;29;1790363;-74
2022/09/24 03:33:51;;;;;;;;;;;;;;;10.05;88.69;96072.44;4898995;29;20341;-74
2022/09/24 03:36:19;;;;;;;;;;;;;;;10.03;88.38;96092.81;4896373;29;19952;-75
2022/09/24 03:38:47;;;;;;;;;;;;;;;10.03;88.61;96090.19;4898905;29;19963;-75
2022/09/24 03:41:13;;;;;;;;;;;;;;;10.04;88.45;96092.63;4898700;29;19983;-76
2022/09/24 03:43:39;;;;;;;;;;;;;;;10.05;88.34;96083.72;4898630;29;19957;-74
2022/09/24 03:46:06;;;;;;;;;;;;;;;10.07;88.27;96099.22;4899315;29;19961;-75
2022/09/24 03:48:32;;;;;;;;;;;;;;;10.07;88.64;96102.63;4898609;29;19959;-74
2022/09/24 03:51:02;;;;;;;;;;;;;;;10.07;89.71;96096.59;4898454;29;19954;-74
2022/09/24 03:53:28;;;;;;;;;;;;;;;10.08;89.45;96098.19;4898602;29;19963;-74
2022/09/24 03:55:55;;;;;;;;;;;;;;;10.08;89.63;96093.75;4898610;29;20394;-74
2022/09/24 03:58:21;;;;;;;;;;;;;;;10.08;89.06;96091.16;4898922;29;19960;-75
2022/09/24 04:00:47;;;;;;;;;;;;;;;10.09;88.77;96087.50;4898424;29;19979;-75
2022/09/24 04:03:13;;;;;;;;;;;;;;;10.10;89.36;96083.03;4898693;29;19968;-75
2022/09/24 04:05:40;;;;;;;;;;;;;;;10.09;88.99;96074.38;4898631;29;19998;-75
2022/09/24 04:08:06;;;;;;;;;;;;;;;10.10;89.30;96067.31;4898853;29;19961;-74
2022/09/24 04:10:32;;;;;;;;;;;;;;;10.09;89.47;96068.34;4898349;29;19965;-74
2022/09/24 04:12:58;;;;;;;;;;;;;;;10.09;89.27;96060.50;4898833;29;19961;-74
2022/09/24 04:15:24;;;;;;;;;;;;;;;10.10;88.91;96062.09;4898368;29;20036;-74
2022/09/24 04:17:54;;;;;;;;;;;;;;;10.09;89.09;96057.88;4898556;29;20386;-74
2022/09/24 04:20:21;;;;;;;;;;;;;;;10.09;89.07;96066.53;4898206;29;19973;-75
2022/09/24 04:22:48;;;;;;;;;;;;;;;10.10;89.13;96064.69;4898625;29;19958;-74
2022/09/24 04:25:14;;;;;;;;;;;;;;;10.10;88.94;96060.28;4900594;29;19971;-74
2022/09/24 04:27:40;;;;;;;;;;;;;;;10.11;89.22;96064.47;4902342;29;19959;-74
2022/09/24 04:30:06;;;;;;;;;;;;;;;10.10;89.49;96057.66;4899236;29;19980;-75
2022/09/24 04:32:32;;;;;;;;;;;;;;;10.11;89.35;96054.00;4902662;29;19960;-75
2022/09/24 04:34:58;;;;;;;;;;;;;;;10.11;89.76;96055.84;4902308;29;20000;-75
2022/09/24 04:37:24;;;;;;;;;;;;;;;10.10;90.00;96054.22;4901026;29;20010;-75
2022/09/24 04:39:50;;;;;;;;;;;;;;;10.08;90.17;96057.09;4901800;29;19975;-75
2022/09/24 04:42:16;;;;;;;;;;;;;;;10.07;90.10;96060.72;4902480;29;19968;-74
2022/09/24 04:44:45;;;;;;;;;;;;;;;10.08;90.59;96062.31;4902088;29;19963;-74
2022/09/24 04:47:12;;;;;;;;;;;;;;;10.08;90.33;96057.09;4901807;29;19954;-74
2022/09/24 04:49:38;;;;;;;;;;;;;;;10.08;90.42;96059.72;4900666;29;19976;-75
2022/09/24 04:52:04;;;;;;;;;;;;;;;10.09;90.00;96061.28;4901866;29;19965;-74
2022/09/24 04:54:30;;;;;;;;;;;;;;;10.10;89.85;96062.09;4901672;29;20349;-75
2022/09/24 04:56:56;;;;;;;;;;;;;;;10.09;89.72;96056.06;4901670;29;19958;-74
2022/09/24 04:59:22;;;;;;;;;;;;;;;10.08;89.69;96059.72;4901568;29;20403;-75
2022/09/24 05:01:48;;;;;;;;;;;;;;;10.08;90.08;96062.31;4901927;29;19962;-75
2022/09/24 05:04:14;;;;;;;;;;;;;;;10.10;89.84;96062.09;4901859;29;19963;-74
2022/09/24 05:06:40;;;;;;;;;;;;;;;10.10;89.79;96065.53;4901654;29;20432;-75
2022/09/24 05:09:06;;;;;;;;;;;;;;;10.12;90.00;96073.13;4901940;29;19966;-74
2022/09/24 05:11:32;;;;;;;;;;;;;;;10.10;89.62;96073.38;4901394;29;20026;-75
2022/09/24 05:13:58;;;;;;;;;;;;;;;10.09;89.74;96071.78;4901509;29;20028;-74
2022/09/24 05:16:24;;;;;;;;;;;;;;;10.10;89.64;96069.94;4901324;29;19963;-75
2022/09/24 05:18:49;;;;;;;;;;;;;;;10.10;90.20;96083.03;4901492;29;19960;-74
2022/09/24 05:21:15;;;;;;;;;;;;;;;10.10;90.06;96080.41;4901225;29;19972;-75
2022/09/24 05:23:41;;;;;;;;;;;;;;;10.11;90.22;96082.81;4901131;29;20420;-75
2022/09/24 05:28:52;;;;;;;;;;;;;;;10.10;90.04;96081.25;4901300;29;20324;-75
2022/09/24 05:31:18;;;;;;;;;;;;;;;10.10;90.49;96078.63;4901292;29;20018;-74
2022/09/24 05:33:45;;;;;;;;;;;;;;;10.10;90.18;96085.66;4901017;29;19962;-75
2022/09/24 05:36:10;;;;;;;;;;;;;;;10.09;90.15;96087.50;4900824;29;19966;-75
2022/09/24 05:38:36;;;;;;;;;;;;;;;10.10;90.45;96093.53;4900857;29;20015;-74
2022/09/24 05:41:02;;;;;;;;;;;;;;;10.10;90.15;96086.47;4900808;29;20002;-74
2022/09/24 05:43:30;;;;;;;;;;;;;;;10.11;90.32;96082.81;4900434;29;20040;-74
2022/09/24 05:45:57;;;;;;;;;;;;;;;10.12;90.59;96084.44;4900336;29;19969;-74
2022/09/24 05:48:24;;;;;;;;;;;;;;;10.14;90.61;96084.19;4900826;29;20339;-75
2022/09/24 05:50:54;;;;;;;;;;;;;;;10.15;90.59;96089.22;4900743;29;19960;-75
2022/09/24 05:53:21;;;;;;;;;;;;;;;10.18;90.82;96095.81;4901010;29;19967;-75
2022/09/24 05:55:47;;;;;;;;;;;;;;;10.19;91.42;96092.19;4899558;29;19957;-74
2022/09/24 05:58:13;;;;;;;;;;;;;;;10.22;90.67;96089.13;4900647;29;19989;-75
2022/09/24 06:00:39;;;;;;;;;;;;;;;10.26;90.83;96092.88;4900605;29;20453;-75
2022/09/24 06:03:10;;;;;;;;;;;;;;;10.28;90.97;96088.22;4900717;29;19962;-75
2022/09/24 06:05:35;;;;;;;;;;;;;;;10.30;91.41;96091.44;4901399;29;20302;-75
2022/09/24 06:08:02;;;;;;;;;;;;;;;10.33;91.34;96098.06;4900423;29;19994;-74
2022/09/24 06:10:28;;;;;;;;;;;;;;;10.35;91.08;96102.06;4900446;29;19967;-75
2022/09/24 06:12:55;;;;;;;;;;;;;;;10.39;91.25;96114.72;4899159;29;20411;-75
2022/09/24 06:15:21;;;;;;;;;;;;;;;10.41;91.24;96117.91;4900449;29;20431;-75
2022/09/24 06:17:47;;;;;;;;;;;;;;;10.44;91.40;96112.25;4900359;29;19966;-75
2022/09/24 06:20:13;;;;;;;;;;;;;;;10.47;91.11;96111.78;4900489;29;20025;-75
2022/09/24 06:22:39;;;;;;;;;;;;;;;10.50;90.74;96111.34;4900168;29;19956;-75
2022/09/24 06:25:05;;;;;;;;;;;;;;;10.53;90.98;96118.75;4900552;29;19958;-74
2022/09/24 06:27:32;;;;;;;;;;;;;;;10.54;90.52;96113.28;4900061;29;19959;-75
2022/09/24 06:29:57;;;;;;;;;;;;;;;10.55;90.36;96114.06;4900060;29;19961;-75
2022/09/24 06:32:24;;;;;;;;;;;;;;;10.51;90.29;96105.84;4899979;29;19979;-75
2022/09/24 06:34:50;;;;;;;;;;;;;;;10.52;90.72;96120.56;4900055;29;19974;-75
2022/09/24 06:37:16;;;;;;;;;;;;;;;10.52;90.37;96112.72;4900287;29;19957;-75
2022/09/24 06:39:41;;;;;;;;;;;;;;;10.55;91.09;96114.06;4900075;29;20007;-74
2022/09/24 06:42:07;;;;;;;;;;;;;;;10.59;90.35;96117.06;4899954;29;19998;-74
2022/09/24 06:44:34;;;;;;;;;;;;;;;10.62;90.70;96119.22;4899835;29;20009;-75
2022/09/24 06:47:00;;;;;;;;;;;;;;;10.67;90.85;96119.34;4899326;29;19961;-74
2022/09/24 06:49:26;;;;;;;;;;;;;;;10.69;91.00;96122.53;4899775;29;19962;-74
2022/09/24 06:51:52;;;;;;;;;;;;;;;10.70;90.67;96119.66;4899616;29;19962;-74
2022/09/24 06:54:19;;;;;;;;;;;;;;;10.73;91.59;96119.22;4899783;29;20409;-74
2022/09/24 06:56:45;;;;;;;;;;;;;;;10.76;91.38;96124.00;4899627;29;19965;-75
2022/09/24 06:59:11;;;;;;;;;;;;;;;10.80;91.61;96124.38;4899468;29;19962;-75
2022/09/24 07:01:37;;;;;;;;;;;;;;;10.85;91.28;96126.31;4899559;29;19982;-74
2022/09/24 07:04:03;;;;;;;;;;;;;;;10.88;90.99;96129.28;4899508;29;19965;-75
2022/09/24 07:07:28;;;;;;;;;;;;;;;10.94;91.64;96130.19;4899360;29;20045;-75
2022/09/24 07:09:14;;;;;;;;;;;;;;;10.98;90.69;96120.81;4899354;29;19971;-75
2022/09/24 07:11:40;;;;;;;;;;;;;;;11.04;90.70;96127.78;4899395;29;20368;-75
2022/09/24 07:14:06;;;;;;;;;;;;;;;11.10;90.81;96131.34;4899161;29;20025;-75
2022/09/24 07:16:32;;;;;;;;;;;;;;;11.13;90.56;96131.69;4899391;29;19990;-74
2022/09/24 07:18:58;;;;;;;;;;;;;;;11.12;90.01;96127.44;4899251;29;19999;-75
2022/09/24 07:21:24;;;;;;;;;;;;;;;11.14;90.55;96135.91;4899445;29;20433;-74
2022/09/24 07:23:50;;;;;;;;;;;;;;;11.18;90.88;96138.88;4899046;29;19992;-75
2022/09/24 07:26:16;;;;;;;;;;;;;;;11.23;91.19;96140.81;4899107;29;19958;-75
2022/09/24 07:28:41;;;;;;;;;;;;;;;11.25;91.34;96141.38;4898953;29;20516;-74
2022/09/24 07:31:08;;;;;;;;;;;;;;;11.27;90.55;96131.44;4899017;29;19994;-75
2022/09/24 07:33:34;;;;;;;;;;;;;;;11.31;90.88;96148.34;4899295;29;19962;-75
2022/09/24 07:36:04;;;;;;;;;;;;;;;11.34;90.41;96148.69;4897571;29;20318;-75
2022/09/24 07:38:30;;;;;;;;;;;;;;;11.40;92.73;96146.94;4898985;29;20348;-74
2022/09/24 07:40:57;;;;;;;;;;;;;;;11.44;91.01;96139.41;4898682;29;19986;-75
2022/09/24 07:43:24;;;;;;;;;;;;;;;11.48;90.95;96145.81;4898588;29;19952;-75
2022/09/24 07:45:51;;;;;;;;;;;;;;;11.54;90.90;96145.66;4898733;29;20318;-75
2022/09/24 07:48:17;;;;;;;;;;;;;;;11.57;90.86;96147.06;4898834;29;20425;-75
2022/09/24 07:50:43;;;;;;;;;;;;;;;11.61;90.75;96144.75;4898914;29;19968;-75
2022/09/24 07:53:11;;;;;;;;;;;;;;;11.62;90.70;96144.53;4898605;29;20003;-74
2022/09/24 07:55:39;;;;;;;;;;;;;;;11.65;90.24;96144.06;4897780;29;20327;-75
2022/09/24 07:58:06;;;;;;;;;;;;;;;11.67;91.10;96155.13;4898526;29;19953;-75
2022/09/24 08:00:32;;;;;;;;;;;;;;;11.69;91.11;96153.06;4898637;29;20334;-75
2022/09/24 08:02:58;;;;;;;;;;;;;;;11.72;90.96;96154.44;4898534;29;19960;-75
2022/09/24 08:05:24;;;;;;;;;;;;;;;11.76;92.66;96166.09;4898623;29;20439;-75
2022/09/24 08:07:51;;;;;;;;;;;;;;;11.79;92.56;96160.38;4897347;29;19957;-75
2022/09/24 08:10:17;;;;;;;;;;;;;;;11.84;93.01;96167.53;4898542;29;19966;-75
2022/09/24 08:12:43;;;;;;;;;;;;;;;11.87;93.14;96172.34;4898884;29;19959;-74
2022/09/24 08:15:09;;;;;;;;;;;;;;;11.91;92.62;96163.00;4898542;29;20390;-75
2022/09/24 08:17:35;;;;;;;;;;;;;;;11.92;92.73;96167.22;4898392;29;19951;-74
2022/09/24 08:20:01;;;;;;;;;;;;;;;11.92;93.08;96164.59;4898425;29;19947;-74
2022/09/24 08:22:27;;;;;;;;;;;;;;;11.93;93.84;96169.63;4898613;29;20005;-74
2022/09/24 08:24:53;;;;;;;;;;;;;;;11.98;94.55;96174.16;4898296;29;20027;-74
2022/09/24 08:27:22;;;;;;;;;;;;;;;12.02;94.22;96167.41;4898582;29;20416;-74
2022/09/24 08:29:48;;;;;;;;;;;;;;;12.05;94.08;96174.03;4898506;29;20009;-74
2022/09/24 08:32:14;;;;;;;;;;;;;;;12.08;94.79;96170.94;4898739;29;19989;-74
2022/09/24 08:34:40;;;;;;;;;;;;;;;12.10;94.98;96168.88;4898525;29;20418;-75
2022/09/24 08:37:06;;;;;;;;;;;;;;;12.11;94.33;96166.00;4898171;29;20371;-75
2022/09/24 08:39:32;;;;;;;;;;;;;;;12.13;95.21;96171.03;4898858;29;19968;-75
2022/09/24 08:42:00;;;;;;;;;;;;;;;12.13;95.45;96171.03;4898283;29;19980;-74
2022/09/24 08:47:22;;;;;;;;;;;;;;;12.15;97.16;96174.22;4898158;29;20328;-75
2022/09/24 08:49:51;;;;;;;;;;;;;;;12.15;98.38;96169.75;4898142;29;20432;-74
2022/09/24 08:52:37;;;;;;;;;;;;;;;12.17;97.74;96172.16;4898671;29;19961;-74
2022/09/24 08:55:07;;;;;;;;;;;;;;;12.18;97.51;96156.16;4884340;29;19964;-74
2022/09/24 08:57:37;;;;;;;;;;;;;;;12.22;98.38;96172.28;4897124;29;19976;-74
2022/09/24 09:00:05;;;;;;;;;;;;;;;12.26;98.76;96162.06;4898001;29;19955;-74
2022/09/24 09:02:50;;;;;;;;;;;;;;;12.29;99.15;96165.03;4898283;29;19963;-74
2022/09/24 09:05:26;;;;;;;;;;;;;;;12.33;100.00;96168.78;4898178;29;20361;-74
2022/09/24 09:08:01;;;;;;;;;;;;;;;12.37;100.00;96171.75;4898518;29;20416;-73
2022/09/24 09:10:32;;;;;;;;;;;;;;;12.38;100.00;96175.97;4897770;29;19965;-74
2022/09/24 09:13:06;;;;;;;;;;;;;;;12.35;100.00;96171.97;4901594;29;19958;-73
2022/09/24 09:15:39;;;;;;;;;;;;;;;12.37;100.00;96169.91;4901766;29;19963;-74
2022/09/24 09:18:11;;;;;;;;;;;;;;;12.41;100.00;96169.44;4891797;29;19952;-74
2022/09/24 09:20:40;;;;;;;;;;;;;;;12.43;100.00;96177.88;4901405;29;19975;-74
2022/09/24 09:23:17;;;;;;;;;;;;;;;12.47;100.00;96168.47;4901159;29;19962;-74
2022/09/24 09:25:56;;;;;;;;;;;;;;;12.50;100.00;96170.66;4901414;29;20440;-74
2022/09/24 09:28:24;;;;;;;;;;;;;;;12.49;100.00;96164.56;4901526;29;19966;-74
2022/09/24 09:30:57;;;;;;;;;;;;;;;12.51;100.00;96156.47;4901330;29;20459;-74
2022/09/24 09:33:23;;;;;;;;;;;;;;;12.54;100.00;96156.78;4887640;29;19960;-73
2022/09/24 09:35:52;;;;;;;;;;;;;;;12.59;100.00;96154.25;4884348;29;20285;-74
2022/09/24 09:38:28;;;;;;;;;;;;;;;12.64;100.00;96160.63;4900338;29;19957;-74
2022/09/24 09:41:19;;;;;;;;;;;;;;;12.68;100.00;96159.94;4901318;29;19981;-74
2022/09/24 09:43:45;;;;;;;;;;;;;;;12.73;100.00;96157.38;4901046;29;19960;-74
2022/09/24 09:46:17;;;;;;;;;;;;;;;12.77;100.00;96153.22;4900463;29;20439;-75
2022/09/24 09:48:51;;;;;;;;;;;;;;;12.84;100.00;96152.28;4900855;29;19954;-74
2022/09/24 09:51:20;;;;;;;;;;;;;;;12.88;100.00;96150.75;4901310;29;19958;-74
2022/09/24 09:53:53;;;;;;;;;;;;;;;12.95;100.00;96159.28;4900710;29;20322;-74
2022/09/24 09:56:22;;;;;;;;;;;;;;;13.01;100.00;96160.97;4900621;29;19965;-74
2022/09/24 09:58:52;;;;;;;;;;;;;;;13.09;100.00;96159.78;4901205;29;19957;-74
2022/09/24 10:01:18;;;;;;;;;;;;;;;13.15;100.00;96159.59;4900614;29;19980;-75
2022/09/24 10:03:45;;;;;;;;;;;;;;;13.20;100.00;96154.41;4900777;29;20445;-74
2022/09/24 10:06:12;;;;;;;;;;;;;;;13.24;100.00;96156.56;4900680;29;20413;-74
2022/09/24 10:08:39;;;;;;;;;;;;;;;13.26;100.00;96143.94;4900705;29;19959;-74
2022/09/24 10:11:06;;;;;;;;;;;;;;;13.27;100.00;96156.06;4900114;29;20326;-74
2022/09/24 10:13:32;;;;;;;;;;;;;;;13.30;100.00;96148.53;4900622;29;19956;-74
2022/09/24 10:16:00;;;;;;;;;;;;;;;13.35;100.00;96153.84;4900530;29;19975;-74
2022/09/24 10:18:29;;;;;;;;;;;;;;;13.38;100.00;96147.31;4900341;29;19963;-75
2022/09/24 10:20:56;;;;;;;;;;;;;;;13.38;100.00;96152.59;4900381;29;19972;-74
2022/09/24 10:23:30;;;;;;;;;;;;;;;13.39;100.00;96151.53;4899321;29;20325;-75
2022/09/24 10:25:59;;;;;;;;;;;;;;;13.41;100.00;96157.34;4889359;29;19951;-75
2022/09/24 10:31:12;;;;;;;;;;;;;;;13.50;100.00;96157.72;4900459;29;20351;-74
2022/09/24 10:33:39;;;;;;;;;;;;;;;13.57;100.00;96161.78;4900113;29;19959;-75
2022/09/24 10:36:15;;;;;;;;;;;;;;;13.63;100.00;96151.31;4899234;29;19966;-74
2022/09/24 10:38:43;;;;;;;;;;;;;;;13.69;100.00;96156.41;4900120;29;19957;-75
2022/09/24 10:41:22;;;;;;;;;;;;;;;13.82;100.00;96160.53;4900044;29;20353;-74
2022/09/24 10:43:49;;;;;;;;;;;;;;;13.98;100.00;96159.66;4900148;29;19959;-75
2022/09/24 10:46:35;;;;;;;;;;;;;;;14.10;100.00;96148.97;4899618;29;19966;-75
2022/09/24 10:49:31;;;;;;;;;;;;;;;14.26;100.00;96160.50;4899626;29;19956;-75
2022/09/24 10:52:17;;;;;;;;;;;;;;;14.37;99.99;96151.63;4879455;29;19963;-75
2022/09/24 10:54:47;;;;;;;;;;;;;;;14.31;100.00;96154.47;4899015;29;20317;-75
2022/09/24 10:57:28;;;;;;;;;;;;;;;14.26;100.00;96157.03;4899711;29;19957;-75
2022/09/24 11:00:02;;;;;;;;;;;;;;;14.24;100.00;96148.56;4899662;29;19964;-76
2022/09/24 11:02:53;;;;;;;;;;;;;;;14.19;100.00;96158.06;4899988;29;19989;-75
2022/09/24 11:05:23;;;;;;;;;;;;;;;14.23;100.00;96158.34;4899977;29;20414;-75
2022/09/24 11:08:06;;;;;;;;;;;;;;;14.27;100.00;96162.06;4899604;29;19965;-75
2022/09/24 11:10:53;;;;;;;;;;;;;;;14.27;100.00;96151.53;4899240;29;19961;-75
2022/09/24 11:13:20;;;;;;;;;;;;;;;14.32;100.00;96148.13;4899407;29;19955;-76
2022/09/24 11:16:05;;;;;;;;;;;;;;;14.39;100.00;96149.53;4898330;29;19954;-75
2022/09/24 11:18:35;;;;;;;;;;;;;;;14.52;100.00;96147.56;4898137;29;19966;-75
2022/09/24 11:21:30;;;;;;;;;;;;;;;14.61;100.00;96149.53;4899268;29;20536;-75
2022/09/24 11:23:59;;;;;;;;;;;;;;;14.65;100.00;96152.44;4877339;29;19957;-75
2022/09/24 11:26:44;;;;;;;;;;;;;;;14.63;100.00;96153.75;4899106;29;19959;-76
2022/09/24 11:29:19;;;;;;;;;;;;;;;14.63;100.00;96153.75;4889555;29;19959;-75
2022/09/24 11:31:54;;;;;;;;;;;;;;;14.62;100.00;96152.97;4898692;29;19989;-75
2022/09/24 11:34:21;;;;;;;;;;;;;;;14.61;100.00;96151.34;4898633;29;19965;-75
2022/09/24 11:36:47;;;;;;;;;;;;;;;14.59;100.00;96153.44;4899097;29;20458;-75
2022/09/24 11:39:13;;;;;;;;;;;;;;;14.60;100.00;96147.13;4898846;29;19957;-75
2022/09/24 11:41:39;;;;;;;;;;;;;;;14.58;100.00;96151.88;4898716;29;19972;-75
2022/09/24 11:44:16;;;;;;;;;;;;;;;14.56;100.00;96144.19;4899220;29;19954;-75
2022/09/24 11:47:00;;;;;;;;;;;;;;;14.56;100.00;96141.56;4898912;29;19962;-75
2022/09/24 11:49:44;;;;;;;;;;;;;;;14.55;100.00;96139.97;4898970;29;19959;-75
2022/09/24 11:52:26;;;;;;;;;;;;;;;14.56;100.00;96138.13;4898806;29;20350;-75
2022/09/24 11:55:01;;;;;;;;;;;;;;;14.56;100.00;96135.47;4891439;29;19968;-75
2022/09/24 11:57:30;;;;;;;;;;;;;;;14.59;100.00;96132.34;4898654;29;20319;-75
2022/09/24 12:00:08;;;;;;;;;;;;;;;14.58;100.00;96126.25;4898627;29;19966;-76
2022/09/24 12:02:36;;;;;;;;;;;;;;;14.58;99.50;96125.47;4898597;29;19987;-75
2022/09/24 12:05:02;;;;;;;;;;;;;;;14.55;100.00;96124.13;4897357;29;19953;-75
2022/09/24 12:07:43;;;;;;;;;;;;;;;14.52;100.00;96126.44;4897383;29;19994;-76
2022/09/24 12:10:15;;;;;;;;;;;;;;;14.48;99.64;96114.78;4884705;29;19961;-75
2022/09/24 12:12:41;;;;;;;;;;;;;;;14.47;98.85;96107.91;4898664;29;20332;-75
2022/09/24 12:15:22;;;;;;;;;;;;;;;14.48;99.64;96110.31;4897339;29;20342;-75
2022/09/24 12:17:51;;;;;;;;;;;;;;;14.50;100.00;96116.13;4897498;29;19953;-75
2022/09/24 12:20:23;;;;;;;;;;;;;;;14.51;100.00;96116.91;4898525;29;19964;-75
2022/09/24 12:22:54;;;;;;;;;;;;;;;14.48;98.36;96112.94;4898406;29;19971;-75
2022/09/24 12:25:20;;;;;;;;;;;;;;;14.45;98.31;96113.47;4898659;29;19962;-75
2022/09/24 12:27:46;;;;;;;;;;;;;;;14.46;99.52;96114.25;4898644;29;19962;-75
2022/09/24 12:33:13;;;;;;;;;;;;;;;14.47;98.96;96110.56;4898791;29;19961;-75
2022/09/24 12:35:42;;;;;;;;;;;;;;;14.48;98.42;96118.22;4898715;29;19957;-75
2022/09/24 12:38:11;;;;;;;;;;;;;;;14.48;98.09;96107.66;4898339;29;19974;-75
2022/09/24 12:40:40;;;;;;;;;;;;;;;14.48;98.69;96109.53;4898482;29;19964;-75
2022/09/24 12:43:18;;;;;;;;;;;;;;;14.49;98.79;96105.81;4898196;29;19968;-75
2022/09/24 12:45:45;;;;;;;;;;;;;;;14.44;96.72;96103.94;4900226;29;19962;-74
2022/09/24 12:48:13;;;;;;;;;;;;;;;14.39;97.82;96106.53;4902067;29;19965;-74
2022/09/24 12:50:39;;;;;;;;;;;;;;;14.38;98.71;96104.94;4902142;29;19959;-74
2022/09/24 12:53:23;;;;;;;;;;;;;;;14.38;99.85;96095.19;4902291;29;19961;-74
2022/09/24 12:55:49;;;;;;;;;;;;;;;14.38;100.00;96092.56;4901976;29;19956;-74
2022/09/24 12:58:29;;;;;;;;;;;;;;;14.39;98.84;96088.06;4901824;29;19962;-73
2022/09/24 13:01:25;;;;;;;;;;;;;;;14.39;99.65;96091.50;4901847;29;19969;-73
2022/09/24 13:04:24;;;;;;;;;;;;;;;14.41;99.11;96089.41;4886672;29;19965;-73
2022/09/24 13:06:50;;;;;;;;;;;;;;;14.40;99.08;96087.84;4870233;29;19959;-73
2022/09/24 13:09:32;;;;;;;;;;;;;;;14.37;98.26;96080.41;4901761;29;19960;-73
2022/09/24 13:12:01;;;;;;;;;;;;;;;14.36;98.53;96086.75;4901481;29;19954;-73